sensor_id;sensor_type;location;lat;lon;timestamp;temperature;humidity
64012;DHT22;50211;52.768;12.124;2022-07-06T00:01:27;16.50;99.90
64012;DHT22;50211;52.768;12.124;2022-07-06T00:03:52;16.50;99.90
64012;DHT22;50211;52.768;12.124;2022-07-06T00:06:17;16.50;99.90
64012;DHT22;50211;52.768;12.124;2022-07-06T00:08:43;16.50;99.90
64012;DHT22;50211;52.768;12.124;2022-07-06T00:11:09;16.50;99.90
64012;DHT22;50211;52.768;12.124;2022-07-06T00:13:35;16.40;99.90
64012;DHT22;50211;52.768;12.124;2022-07-06T00:16:01;16.40;99.90
64012;DHT22;50211;52.768;12.124;2022-07-06T00:18:26;16.40;99.90
64012;DHT22;50211;52.768;12.124;2022-07-06T00:20:52;16.40;99.90
64012;DHT22;50211;52.768;12.124;2022-07-06T00:23:17;16.40;99.90
64012;DHT22;50211;52.768;12.124;2022-07-06T00:25:43;16.40;99.90
64012;DHT22;50211;52.768;12.124;2022-07-06T00:28:09;16.30;99.90
64012;DHT22;50211;52.768;12.124;2022-07-06T00:30:34;16.30;99.90
64012;DHT22;50211;52.768;12.124;2022-07-06T00:33:00;16.40;99.90
64012;DHT22;50211;52.768;12.124;2022-07-06T00:35:25;16.30;99.90
64012;DHT22;50211;52.768;12.124;2022-07-06T00:37:51;16.20;99.90
64012;DHT22;50211;52.768;12.124;2022-07-06T00:40:17;16.10;99.90
64012;DHT22;50211;52.768;12.124;2022-07-06T00:42:47;16.10;99.90
64012;DHT22;50211;52.768;12.124;2022-07-06T00:45:13;16.00;99.90
64012;DHT22;50211;52.768;12.124;2022-07-06T00:47:40;15.90;99.90
64012;DHT22;50211;52.768;12.124;2022-07-06T00:50:08;15.80;99.90
64012;DHT22;50211;52.768;12.124;2022-07-06T00:55:14;15.60;99.90
64012;DHT22;50211;52.768;12.124;2022-07-06T00:57:40;15.50;99.90
64012;DHT22;50211;52.768;12.124;2022-07-06T01:00:09;15.50;99.90
64012;DHT22;50211;52.768;12.124;2022-07-06T01:02:35;15.40;99.90
64012;DHT22;50211;52.768;12.124;2022-07-06T01:05:05;15.40;99.90
64012;DHT22;50211;52.768;12.124;2022-07-06T01:07:32;15.30;99.90
64012;DHT22;50211;52.768;12.124;2022-07-06T01:09:58;15.30;99.90
64012;DHT22;50211;52.768;12.124;2022-07-06T01:12:24;15.30;99.90
64012;DHT22;50211;52.768;12.124;2022-07-06T01:14:50;15.20;99.90
64012;DHT22;50211;52.768;12.124;2022-07-06T01:17:17;15.20;99.90
64012;DHT22;50211;52.768;12.124;2022-07-06T01:19:42;15.10;99.90
64012;DHT22;50211;52.768;12.124;2022-07-06T01:22:09;15.00;99.90
64012;DHT22;50211;52.768;12.124;2022-07-06T01:24:38;14.90;99.90
64012;DHT22;50211;52.768;12.124;2022-07-06T01:27:04;14.80;99.90
64012;DHT22;50211;52.768;12.124;2022-07-06T01:29:30;14.70;99.90
64012;DHT22;50211;52.768;12.124;2022-07-06T01:31:56;14.60;99.90
64012;DHT22;50211;52.768;12.124;2022-07-06T01:34:22;14.60;99.90
64012;DHT22;50211;52.768;12.124;2022-07-06T01:36:47;14.60;99.90
64012;DHT22;50211;52.768;12.124;2022-07-06T01:39:13;14.60;99.90
64012;DHT22;50211;52.768;12.124;2022-07-06T01:41:38;14.40;99.90
64012;DHT22;50211;52.768;12.124;2022-07-06T01:44:05;14.40;99.90
64012;DHT22;50211;52.768;12.124;2022-07-06T01:46:31;14.40;99.90
64012;DHT22;50211;52.768;12.124;2022-07-06T01:48:57;14.30;99.90
64012;DHT22;50211;52.768;12.124;2022-07-06T01:51:23;14.20;99.90
64012;DHT22;50211;52.768;12.124;2022-07-06T01:53:50;14.20;99.90
64012;DHT22;50211;52.768;12.124;2022-07-06T01:56:16;14.10;99.90
64012;DHT22;50211;52.768;12.124;2022-07-06T01:58:42;14.10;99.90
64012;DHT22;50211;52.768;12.124;2022-07-06T02:01:12;14.10;99.90
64012;DHT22;50211;52.768;12.124;2022-07-06T02:03:38;14.10;99.90
64012;DHT22;50211;52.768;12.124;2022-07-06T02:06:05;14.10;99.90
64012;DHT22;50211;52.768;12.124;2022-07-06T02:08:31;14.00;99.90
64012;DHT22;50211;52.768;12.124;2022-07-06T02:10:57;14.10;99.90
64012;DHT22;50211;52.768;12.124;2022-07-06T02:13:23;14.00;99.90
64012;DHT22;50211;52.768;12.124;2022-07-06T02:15:48;14.00;99.90
64012;DHT22;50211;52.768;12.124;2022-07-06T02:18:14;14.00;99.90
64012;DHT22;50211;52.768;12.124;2022-07-06T02:20:39;14.00;99.90
64012;DHT22;50211;52.768;12.124;2022-07-06T02:23:05;14.00;99.90
64012;DHT22;50211;52.768;12.124;2022-07-06T02:25:31;14.00;99.90
64012;DHT22;50211;52.768;12.124;2022-07-06T02:27:56;13.80;99.90
64012;DHT22;50211;52.768;12.124;2022-07-06T02:30:22;13.90;99.90
64012;DHT22;50211;52.768;12.124;2022-07-06T02:32:47;13.90;99.90
64012;DHT22;50211;52.768;12.124;2022-07-06T02:35:13;13.90;99.90
64012;DHT22;50211;52.768;12.124;2022-07-06T02:37:38;13.90;99.90
64012;DHT22;50211;52.768;12.124;2022-07-06T02:40:04;13.80;99.90
64012;DHT22;50211;52.768;12.124;2022-07-06T02:42:30;13.70;99.90
64012;DHT22;50211;52.768;12.124;2022-07-06T02:44:55;13.70;99.90
64012;DHT22;50211;52.768;12.124;2022-07-06T02:47:21;13.70;99.90
64012;DHT22;50211;52.768;12.124;2022-07-06T02:49:47;13.60;99.90
64012;DHT22;50211;52.768;12.124;2022-07-06T02:52:12;13.60;99.90
64012;DHT22;50211;52.768;12.124;2022-07-06T02:54:38;13.60;99.90
64012;DHT22;50211;52.768;12.124;2022-07-06T02:57:04;13.60;99.90
64012;DHT22;50211;52.768;12.124;2022-07-06T02:59:29;13.60;99.90
64012;DHT22;50211;52.768;12.124;2022-07-06T03:01:55;13.50;99.90
64012;DHT22;50211;52.768;12.124;2022-07-06T03:04:20;13.50;99.90
64012;DHT22;50211;52.768;12.124;2022-07-06T03:06:46;13.40;99.90
64012;DHT22;50211;52.768;12.124;2022-07-06T03:09:11;13.40;99.90
64012;DHT22;50211;52.768;12.124;2022-07-06T03:11:37;13.40;99.90
64012;DHT22;50211;52.768;12.124;2022-07-06T03:14:03;13.40;99.90
64012;DHT22;50211;52.768;12.124;2022-07-06T03:16:29;13.40;99.90
64012;DHT22;50211;52.768;12.124;2022-07-06T03:18:54;13.40;99.90
64012;DHT22;50211;52.768;12.124;2022-07-06T03:21:20;13.30;99.90
64012;DHT22;50211;52.768;12.124;2022-07-06T03:23:45;13.30;99.90
64012;DHT22;50211;52.768;12.124;2022-07-06T03:26:11;13.30;99.90
64012;DHT22;50211;52.768;12.124;2022-07-06T03:28:36;13.40;99.90
64012;DHT22;50211;52.768;12.124;2022-07-06T03:31:02;13.40;99.90
64012;DHT22;50211;52.768;12.124;2022-07-06T03:33:27;13.30;99.90
64012;DHT22;50211;52.768;12.124;2022-07-06T03:35:53;13.40;99.90
64012;DHT22;50211;52.768;12.124;2022-07-06T03:38:18;13.40;99.90
64012;DHT22;50211;52.768;12.124;2022-07-06T03:40:44;13.50;99.90
64012;DHT22;50211;52.768;12.124;2022-07-06T03:43:09;13.40;99.90
64012;DHT22;50211;52.768;12.124;2022-07-06T03:45:34;13.40;99.90
64012;DHT22;50211;52.768;12.124;2022-07-06T03:48:00;13.40;99.90
64012;DHT22;50211;52.768;12.124;2022-07-06T03:50:25;13.50;99.90
64012;DHT22;50211;52.768;12.124;2022-07-06T03:52:51;13.50;99.90
64012;DHT22;50211;52.768;12.124;2022-07-06T03:55:16;13.50;99.90
64012;DHT22;50211;52.768;12.124;2022-07-06T03:57:42;13.50;99.90
64012;DHT22;50211;52.768;12.124;2022-07-06T04:00:08;13.60;99.90
64012;DHT22;50211;52.768;12.124;2022-07-06T04:02:34;13.60;99.90
64012;DHT22;50211;52.768;12.124;2022-07-06T04:04:59;13.60;99.90
64012;DHT22;50211;52.768;12.124;2022-07-06T04:07:25;13.60;99.90
64012;DHT22;50211;52.768;12.124;2022-07-06T04:09:51;13.60;99.90
64012;DHT22;50211;52.768;12.124;2022-07-06T04:12:17;13.60;99.90
64012;DHT22;50211;52.768;12.124;2022-07-06T04:14:43;13.60;99.90
64012;DHT22;50211;52.768;12.124;2022-07-06T04:17:08;13.70;99.90
64012;DHT22;50211;52.768;12.124;2022-07-06T04:19:53;13.80;99.90
64012;DHT22;50211;52.768;12.124;2022-07-06T04:22:18;13.80;99.90
64012;DHT22;50211;52.768;12.124;2022-07-06T04:24:44;14.00;99.90
64012;DHT22;50211;52.768;12.124;2022-07-06T04:27:09;14.00;99.90
64012;DHT22;50211;52.768;12.124;2022-07-06T04:29:35;14.00;99.90
64012;DHT22;50211;52.768;12.124;2022-07-06T04:32:00;13.90;99.90
64012;DHT22;50211;52.768;12.124;2022-07-06T04:34:26;13.90;99.90
64012;DHT22;50211;52.768;12.124;2022-07-06T04:36:52;13.80;99.90
64012;DHT22;50211;52.768;12.124;2022-07-06T04:39:17;13.80;99.90
64012;DHT22;50211;52.768;12.124;2022-07-06T04:41:43;13.80;99.90
64012;DHT22;50211;52.768;12.124;2022-07-06T04:44:08;13.70;99.90
64012;DHT22;50211;52.768;12.124;2022-07-06T04:46:34;13.70;99.90
64012;DHT22;50211;52.768;12.124;2022-07-06T04:48:59;13.70;99.90
64012;DHT22;50211;52.768;12.124;2022-07-06T04:51:25;13.70;99.90
64012;DHT22;50211;52.768;12.124;2022-07-06T04:53:50;13.70;99.90
64012;DHT22;50211;52.768;12.124;2022-07-06T04:56:16;13.80;99.90
64012;DHT22;50211;52.768;12.124;2022-07-06T04:58:41;13.70;99.90
64012;DHT22;50211;52.768;12.124;2022-07-06T05:01:07;13.80;99.90
64012;DHT22;50211;52.768;12.124;2022-07-06T05:03:33;13.90;99.90
64012;DHT22;50211;52.768;12.124;2022-07-06T05:06:04;13.90;99.90
64012;DHT22;50211;52.768;12.124;2022-07-06T05:08:30;14.00;99.90
64012;DHT22;50211;52.768;12.124;2022-07-06T05:10:56;14.00;99.90
64012;DHT22;50211;52.768;12.124;2022-07-06T05:13:21;14.00;99.90
64012;DHT22;50211;52.768;12.124;2022-07-06T05:15:46;14.00;99.90
64012;DHT22;50211;52.768;12.124;2022-07-06T05:18:12;14.20;99.90
64012;DHT22;50211;52.768;12.124;2022-07-06T05:20:37;14.30;99.90
64012;DHT22;50211;52.768;12.124;2022-07-06T05:23:03;14.30;99.90
64012;DHT22;50211;52.768;12.124;2022-07-06T05:25:29;14.40;99.90
64012;DHT22;50211;52.768;12.124;2022-07-06T05:27:55;14.50;99.90
64012;DHT22;50211;52.768;12.124;2022-07-06T05:30:21;14.60;99.90
64012;DHT22;50211;52.768;12.124;2022-07-06T05:32:46;14.60;99.90
64012;DHT22;50211;52.768;12.124;2022-07-06T05:35:12;14.60;99.90
64012;DHT22;50211;52.768;12.124;2022-07-06T05:37:37;14.60;99.90
64012;DHT22;50211;52.768;12.124;2022-07-06T05:40:03;14.70;99.90
64012;DHT22;50211;52.768;12.124;2022-07-06T05:42:29;14.70;99.90
64012;DHT22;50211;52.768;12.124;2022-07-06T05:44:55;14.70;99.90
64012;DHT22;50211;52.768;12.124;2022-07-06T05:47:21;14.90;99.90
64012;DHT22;50211;52.768;12.124;2022-07-06T05:50:19;15.00;99.90
64012;DHT22;50211;52.768;12.124;2022-07-06T05:52:58;15.00;99.90
64012;DHT22;50211;52.768;12.124;2022-07-06T05:55:24;15.10;99.90
64012;DHT22;50211;52.768;12.124;2022-07-06T05:57:49;15.20;99.90
64012;DHT22;50211;52.768;12.124;2022-07-06T06:00:15;15.20;99.90
64012;DHT22;50211;52.768;12.124;2022-07-06T06:02:42;15.30;99.90
64012;DHT22;50211;52.768;12.124;2022-07-06T06:05:09;15.40;99.90
64012;DHT22;50211;52.768;12.124;2022-07-06T06:07:35;15.40;99.90
64012;DHT22;50211;52.768;12.124;2022-07-06T06:10:06;15.60;99.90
64012;DHT22;50211;52.768;12.124;2022-07-06T06:12:32;15.60;99.90
64012;DHT22;50211;52.768;12.124;2022-07-06T06:14:57;15.70;99.90
64012;DHT22;50211;52.768;12.124;2022-07-06T06:17:23;15.60;99.90
64012;DHT22;50211;52.768;12.124;2022-07-06T06:19:48;15.60;99.90
64012;DHT22;50211;52.768;12.124;2022-07-06T06:22:14;15.80;99.90
64012;DHT22;50211;52.768;12.124;2022-07-06T06:24:39;15.90;99.90
64012;DHT22;50211;52.768;12.124;2022-07-06T06:27:05;15.80;99.90
64012;DHT22;50211;52.768;12.124;2022-07-06T06:29:31;15.90;99.90
64012;DHT22;50211;52.768;12.124;2022-07-06T06:31:56;16.00;99.90
64012;DHT22;50211;52.768;12.124;2022-07-06T06:34:22;16.10;99.90
64012;DHT22;50211;52.768;12.124;2022-07-06T06:36:47;16.30;99.90
64012;DHT22;50211;52.768;12.124;2022-07-06T06:39:13;16.30;99.90
64012;DHT22;50211;52.768;12.124;2022-07-06T06:41:38;16.30;99.90
64012;DHT22;50211;52.768;12.124;2022-07-06T06:44:04;16.20;99.90
64012;DHT22;50211;52.768;12.124;2022-07-06T06:46:29;16.30;99.90
64012;DHT22;50211;52.768;12.124;2022-07-06T06:48:55;16.50;99.90
64012;DHT22;50211;52.768;12.124;2022-07-06T06:51:20;16.60;99.90
64012;DHT22;50211;52.768;12.124;2022-07-06T06:53:46;16.70;99.90
64012;DHT22;50211;52.768;12.124;2022-07-06T06:56:12;16.60;99.90
64012;DHT22;50211;52.768;12.124;2022-07-06T06:58:37;16.70;99.90
64012;DHT22;50211;52.768;12.124;2022-07-06T07:01:03;16.70;99.90
64012;DHT22;50211;52.768;12.124;2022-07-06T07:03:30;16.70;99.90
64012;DHT22;50211;52.768;12.124;2022-07-06T07:05:55;16.70;99.90
64012;DHT22;50211;52.768;12.124;2022-07-06T07:08:20;16.90;99.90
64012;DHT22;50211;52.768;12.124;2022-07-06T07:10:46;17.00;99.90
64012;DHT22;50211;52.768;12.124;2022-07-06T07:13:12;16.90;99.90
64012;DHT22;50211;52.768;12.124;2022-07-06T07:15:37;16.90;99.90
64012;DHT22;50211;52.768;12.124;2022-07-06T07:18:03;16.90;99.90
64012;DHT22;50211;52.768;12.124;2022-07-06T07:20:28;17.00;99.90
64012;DHT22;50211;52.768;12.124;2022-07-06T07:22:55;16.90;99.90
64012;DHT22;50211;52.768;12.124;2022-07-06T07:25:20;16.90;99.90
64012;DHT22;50211;52.768;12.124;2022-07-06T07:27:46;17.20;99.90
64012;DHT22;50211;52.768;12.124;2022-07-06T07:30:12;17.40;99.90
64012;DHT22;50211;52.768;12.124;2022-07-06T07:32:37;17.50;99.90
64012;DHT22;50211;52.768;12.124;2022-07-06T07:35:06;17.40;99.90
64012;DHT22;50211;52.768;12.124;2022-07-06T07:37:31;17.50;99.90
64012;DHT22;50211;52.768;12.124;2022-07-06T07:39:57;17.60;99.90
64012;DHT22;50211;52.768;12.124;2022-07-06T07:42:22;17.60;99.90
64012;DHT22;50211;52.768;12.124;2022-07-06T07:44:48;17.50;99.90
64012;DHT22;50211;52.768;12.124;2022-07-06T07:47:13;17.50;99.90
64012;DHT22;50211;52.768;12.124;2022-07-06T07:49:39;17.60;99.90
64012;DHT22;50211;52.768;12.124;2022-07-06T07:52:04;17.50;99.90
64012;DHT22;50211;52.768;12.124;2022-07-06T07:54:30;17.40;99.90
64012;DHT22;50211;52.768;12.124;2022-07-06T07:56:56;17.50;99.90
64012;DHT22;50211;52.768;12.124;2022-07-06T07:59:21;17.50;99.90
64012;DHT22;50211;52.768;12.124;2022-07-06T08:01:47;17.30;99.90
64012;DHT22;50211;52.768;12.124;2022-07-06T08:04:13;17.20;99.90
64012;DHT22;50211;52.768;12.124;2022-07-06T08:06:39;17.10;99.90
64012;DHT22;50211;52.768;12.124;2022-07-06T08:09:04;17.10;99.90
64012;DHT22;50211;52.768;12.124;2022-07-06T08:11:33;17.20;99.90
64012;DHT22;50211;52.768;12.124;2022-07-06T08:13:58;17.60;99.90
64012;DHT22;50211;52.768;12.124;2022-07-06T08:16:24;18.20;99.90
64012;DHT22;50211;52.768;12.124;2022-07-06T08:18:50;18.50;99.90
64012;DHT22;50211;52.768;12.124;2022-07-06T08:21:15;18.50;99.90
64012;DHT22;50211;52.768;12.124;2022-07-06T08:23:41;18.40;99.90
64012;DHT22;50211;52.768;12.124;2022-07-06T08:26:06;18.50;99.90
64012;DHT22;50211;52.768;12.124;2022-07-06T08:28:32;18.60;99.90
64012;DHT22;50211;52.768;12.124;2022-07-06T08:30:57;18.60;99.90
64012;DHT22;50211;52.768;12.124;2022-07-06T08:33:23;18.40;99.90
64012;DHT22;50211;52.768;12.124;2022-07-06T08:35:48;18.30;99.90
64012;DHT22;50211;52.768;12.124;2022-07-06T08:38:14;18.10;99.90
64012;DHT22;50211;52.768;12.124;2022-07-06T08:40:40;18.10;99.90
64012;DHT22;50211;52.768;12.124;2022-07-06T08:43:08;17.90;99.90
64012;DHT22;50211;52.768;12.124;2022-07-06T08:45:35;17.90;99.90
64012;DHT22;50211;52.768;12.124;2022-07-06T08:48:05;17.90;99.90
64012;DHT22;50211;52.768;12.124;2022-07-06T08:50:33;17.70;99.90
64012;DHT22;50211;52.768;12.124;2022-07-06T08:52:58;17.50;99.90
64012;DHT22;50211;52.768;12.124;2022-07-06T08:55:25;17.40;99.90
64012;DHT22;50211;52.768;12.124;2022-07-06T08:57:51;17.40;99.90
64012;DHT22;50211;52.768;12.124;2022-07-06T09:00:17;17.40;99.90
64012;DHT22;50211;52.768;12.124;2022-07-06T09:02:43;17.30;99.90
64012;DHT22;50211;52.768;12.124;2022-07-06T09:05:09;17.30;99.90
64012;DHT22;50211;52.768;12.124;2022-07-06T09:07:38;17.10;99.90
64012;DHT22;50211;52.768;12.124;2022-07-06T09:10:07;17.10;99.90
64012;DHT22;50211;52.768;12.124;2022-07-06T09:12:33;17.30;99.90
64012;DHT22;50211;52.768;12.124;2022-07-06T09:14:58;17.50;99.90
64012;DHT22;50211;52.768;12.124;2022-07-06T09:17:28;17.60;99.90
64012;DHT22;50211;52.768;12.124;2022-07-06T09:19:55;17.90;99.90
64012;DHT22;50211;52.768;12.124;2022-07-06T09:22:27;18.30;99.90
64012;DHT22;50211;52.768;12.124;2022-07-06T09:24:53;18.50;99.90
64012;DHT22;50211;52.768;12.124;2022-07-06T09:27:26;18.80;99.90
64012;DHT22;50211;52.768;12.124;2022-07-06T09:29:51;18.90;99.90
64012;DHT22;50211;52.768;12.124;2022-07-06T09:32:20;19.00;99.90
64012;DHT22;50211;52.768;12.124;2022-07-06T09:34:46;18.60;99.90
64012;DHT22;50211;52.768;12.124;2022-07-06T09:37:13;18.50;99.90
64012;DHT22;50211;52.768;12.124;2022-07-06T09:39:39;18.30;99.90
64012;DHT22;50211;52.768;12.124;2022-07-06T09:42:05;18.10;99.90
64012;DHT22;50211;52.768;12.124;2022-07-06T09:44:35;18.40;99.90
64012;DHT22;50211;52.768;12.124;2022-07-06T09:47:07;18.30;99.90
64012;DHT22;50211;52.768;12.124;2022-07-06T09:49:33;18.10;99.90
64012;DHT22;50211;52.768;12.124;2022-07-06T09:52:00;18.10;99.90
64012;DHT22;50211;52.768;12.124;2022-07-06T09:54:26;18.20;99.90
64012;DHT22;50211;52.768;12.124;2022-07-06T09:56:53;18.00;99.90
64012;DHT22;50211;52.768;12.124;2022-07-06T09:59:21;18.00;99.90
64012;DHT22;50211;52.768;12.124;2022-07-06T10:01:47;17.90;99.90
64012;DHT22;50211;52.768;12.124;2022-07-06T10:04:13;17.90;99.90
64012;DHT22;50211;52.768;12.124;2022-07-06T10:06:40;17.90;99.90
64012;DHT22;50211;52.768;12.124;2022-07-06T10:09:07;17.80;99.90
64012;DHT22;50211;52.768;12.124;2022-07-06T10:11:57;17.70;99.90
64012;DHT22;50211;52.768;12.124;2022-07-06T10:14:25;17.80;99.90
64012;DHT22;50211;52.768;12.124;2022-07-06T10:16:51;17.90;99.90
64012;DHT22;50211;52.768;12.124;2022-07-06T10:19:18;18.10;99.90
64012;DHT22;50211;52.768;12.124;2022-07-06T10:21:45;18.30;99.90
64012;DHT22;50211;52.768;12.124;2022-07-06T10:24:12;18.40;99.90
64012;DHT22;50211;52.768;12.124;2022-07-06T10:26:38;18.30;99.90
64012;DHT22;50211;52.768;12.124;2022-07-06T10:29:05;18.40;99.90
64012;DHT22;50211;52.768;12.124;2022-07-06T10:31:33;18.80;99.90
64012;DHT22;50211;52.768;12.124;2022-07-06T10:34:00;19.00;99.90
64012;DHT22;50211;52.768;12.124;2022-07-06T10:36:27;19.10;99.90
64012;DHT22;50211;52.768;12.124;2022-07-06T10:38:53;19.00;99.90
64012;DHT22;50211;52.768;12.124;2022-07-06T10:41:31;19.10;99.90
64012;DHT22;50211;52.768;12.124;2022-07-06T10:43:57;19.10;99.90
64012;DHT22;50211;52.768;12.124;2022-07-06T10:46:27;18.80;99.90
64012;DHT22;50211;52.768;12.124;2022-07-06T10:48:54;18.90;99.90
64012;DHT22;50211;52.768;12.124;2022-07-06T10:51:25;18.80;99.90
64012;DHT22;50211;52.768;12.124;2022-07-06T10:54:02;18.90;99.90
64012;DHT22;50211;52.768;12.124;2022-07-06T10:56:44;18.90;99.90
64012;DHT22;50211;52.768;12.124;2022-07-06T10:59:17;19.10;99.90
64012;DHT22;50211;52.768;12.124;2022-07-06T11:04:40;19.80;99.90
64012;DHT22;50211;52.768;12.124;2022-07-06T11:07:28;20.10;99.90
64012;DHT22;50211;52.768;12.124;2022-07-06T11:09:58;20.00;99.90
64012;DHT22;50211;52.768;12.124;2022-07-06T11:12:25;20.00;99.90
64012;DHT22;50211;52.768;12.124;2022-07-06T11:14:51;20.70;99.90
64012;DHT22;50211;52.768;12.124;2022-07-06T11:17:18;20.60;99.90
64012;DHT22;50211;52.768;12.124;2022-07-06T11:19:57;20.30;99.90
64012;DHT22;50211;52.768;12.124;2022-07-06T11:22:23;20.50;99.90
64012;DHT22;50211;52.768;12.124;2022-07-06T11:24:52;20.80;99.90
64012;DHT22;50211;52.768;12.124;2022-07-06T11:27:18;21.10;99.90
64012;DHT22;50211;52.768;12.124;2022-07-06T11:29:44;21.40;99.90
64012;DHT22;50211;52.768;12.124;2022-07-06T11:32:11;21.30;99.90
64012;DHT22;50211;52.768;12.124;2022-07-06T11:34:39;21.10;99.90
64012;DHT22;50211;52.768;12.124;2022-07-06T11:37:13;21.10;99.90
64012;DHT22;50211;52.768;12.124;2022-07-06T11:39:41;20.90;99.90
64012;DHT22;50211;52.768;12.124;2022-07-06T11:42:09;21.00;99.90
64012;DHT22;50211;52.768;12.124;2022-07-06T11:44:35;21.00;99.90
64012;DHT22;50211;52.768;12.124;2022-07-06T11:47:03;20.80;99.90
64012;DHT22;50211;52.768;12.124;2022-07-06T11:49:29;20.50;99.90
64012;DHT22;50211;52.768;12.124;2022-07-06T11:51:56;20.00;99.90
64012;DHT22;50211;52.768;12.124;2022-07-06T11:54:23;19.80;99.90
64012;DHT22;50211;52.768;12.124;2022-07-06T11:56:54;19.60;99.90
64012;DHT22;50211;52.768;12.124;2022-07-06T11:59:33;19.50;99.90
64012;DHT22;50211;52.768;12.124;2022-07-06T12:02:05;19.30;99.90
64012;DHT22;50211;52.768;12.124;2022-07-06T12:04:32;19.10;99.90
64012;DHT22;50211;52.768;12.124;2022-07-06T12:07:02;18.90;99.90
64012;DHT22;50211;52.768;12.124;2022-07-06T12:09:36;18.90;99.90
64012;DHT22;50211;52.768;12.124;2022-07-06T12:12:02;18.80;99.90
64012;DHT22;50211;52.768;12.124;2022-07-06T12:14:30;18.80;99.90
64012;DHT22;50211;52.768;12.124;2022-07-06T12:16:56;18.60;99.90
64012;DHT22;50211;52.768;12.124;2022-07-06T12:19:27;18.60;99.90
64012;DHT22;50211;52.768;12.124;2022-07-06T12:21:52;18.50;99.90
64012;DHT22;50211;52.768;12.124;2022-07-06T12:24:23;18.60;99.90
64012;DHT22;50211;52.768;12.124;2022-07-06T12:26:50;18.70;99.90
64012;DHT22;50211;52.768;12.124;2022-07-06T12:29:16;18.80;99.90
64012;DHT22;50211;52.768;12.124;2022-07-06T12:31:43;18.80;99.90
64012;DHT22;50211;52.768;12.124;2022-07-06T12:34:14;18.80;99.90
64012;DHT22;50211;52.768;12.124;2022-07-06T12:39:22;18.50;99.90
64012;DHT22;50211;52.768;12.124;2022-07-06T12:41:52;18.50;99.90
64012;DHT22;50211;52.768;12.124;2022-07-06T12:44:20;18.40;99.90
64012;DHT22;50211;52.768;12.124;2022-07-06T12:46:46;18.30;99.90
64012;DHT22;50211;52.768;12.124;2022-07-06T12:49:15;18.40;99.90
64012;DHT22;50211;52.768;12.124;2022-07-06T12:51:58;18.30;99.90
64012;DHT22;50211;52.768;12.124;2022-07-06T12:54:27;18.40;99.90
64012;DHT22;50211;52.768;12.124;2022-07-06T12:57:03;18.30;99.90
64012;DHT22;50211;52.768;12.124;2022-07-06T12:59:30;18.20;99.90
64012;DHT22;50211;52.768;12.124;2022-07-06T13:01:56;18.20;99.90
64012;DHT22;50211;52.768;12.124;2022-07-06T13:04:23;18.20;99.90
64012;DHT22;50211;52.768;12.124;2022-07-06T13:06:49;18.20;99.90
64012;DHT22;50211;52.768;12.124;2022-07-06T13:09:15;18.30;99.90
64012;DHT22;50211;52.768;12.124;2022-07-06T13:11:42;18.40;99.90
64012;DHT22;50211;52.768;12.124;2022-07-06T13:14:07;18.10;99.90
64012;DHT22;50211;52.768;12.124;2022-07-06T13:16:35;17.90;99.90
64012;DHT22;50211;52.768;12.124;2022-07-06T13:19:01;17.90;99.90
64012;DHT22;50211;52.768;12.124;2022-07-06T13:21:27;18.00;99.90
64012;DHT22;50211;52.768;12.124;2022-07-06T13:23:52;18.10;99.90
64012;DHT22;50211;52.768;12.124;2022-07-06T13:26:18;18.00;99.90
64012;DHT22;50211;52.768;12.124;2022-07-06T13:28:43;17.90;99.90
64012;DHT22;50211;52.768;12.124;2022-07-06T13:31:09;17.90;99.90
64012;DHT22;50211;52.768;12.124;2022-07-06T13:33:35;17.90;99.90
64012;DHT22;50211;52.768;12.124;2022-07-06T13:36:01;18.00;99.90
64012;DHT22;50211;52.768;12.124;2022-07-06T13:38:26;18.20;99.90
64012;DHT22;50211;52.768;12.124;2022-07-06T13:40:52;18.30;99.90
64012;DHT22;50211;52.768;12.124;2022-07-06T13:43:18;18.50;99.90
64012;DHT22;50211;52.768;12.124;2022-07-06T13:45:45;18.60;99.90
64012;DHT22;50211;52.768;12.124;2022-07-06T13:48:10;18.50;99.90
64012;DHT22;50211;52.768;12.124;2022-07-06T13:50:35;18.70;99.90
64012;DHT22;50211;52.768;12.124;2022-07-06T13:53:01;18.70;99.90
64012;DHT22;50211;52.768;12.124;2022-07-06T13:55:26;18.50;99.90
64012;DHT22;50211;52.768;12.124;2022-07-06T13:57:52;18.50;99.90
64012;DHT22;50211;52.768;12.124;2022-07-06T14:00:18;18.60;99.90
64012;DHT22;50211;52.768;12.124;2022-07-06T14:02:44;18.60;99.90
64012;DHT22;50211;52.768;12.124;2022-07-06T14:05:10;18.60;99.90
64012;DHT22;50211;52.768;12.124;2022-07-06T14:07:35;18.80;99.90
64012;DHT22;50211;52.768;12.124;2022-07-06T14:10:01;18.80;99.90
64012;DHT22;50211;52.768;12.124;2022-07-06T14:12:27;19.00;99.90
64012;DHT22;50211;52.768;12.124;2022-07-06T14:14:52;19.30;99.90
64012;DHT22;50211;52.768;12.124;2022-07-06T14:17:18;19.50;99.90
64012;DHT22;50211;52.768;12.124;2022-07-06T14:19:43;19.60;99.90
64012;DHT22;50211;52.768;12.124;2022-07-06T14:22:09;20.10;99.90
64012;DHT22;50211;52.768;12.124;2022-07-06T14:24:35;19.90;99.90
64012;DHT22;50211;52.768;12.124;2022-07-06T14:27:00;19.80;99.90
64012;DHT22;50211;52.768;12.124;2022-07-06T14:29:26;19.80;99.90
64012;DHT22;50211;52.768;12.124;2022-07-06T14:31:51;19.90;99.90
64012;DHT22;50211;52.768;12.124;2022-07-06T14:34:17;19.90;99.90
64012;DHT22;50211;52.768;12.124;2022-07-06T14:36:42;19.80;99.90
64012;DHT22;50211;52.768;12.124;2022-07-06T14:39:08;19.80;99.90
64012;DHT22;50211;52.768;12.124;2022-07-06T14:41:33;20.00;99.90
64012;DHT22;50211;52.768;12.124;2022-07-06T14:44:00;20.10;99.90
64012;DHT22;50211;52.768;12.124;2022-07-06T14:46:26;20.00;99.90
64012;DHT22;50211;52.768;12.124;2022-07-06T14:48:52;19.80;99.90
64012;DHT22;50211;52.768;12.124;2022-07-06T14:51:17;19.60;99.90
64012;DHT22;50211;52.768;12.124;2022-07-06T14:53:43;19.60;99.90
64012;DHT22;50211;52.768;12.124;2022-07-06T14:56:08;19.50;99.90
64012;DHT22;50211;52.768;12.124;2022-07-06T14:58:34;19.60;99.90
64012;DHT22;50211;52.768;12.124;2022-07-06T15:00:59;19.70;99.90
64012;DHT22;50211;52.768;12.124;2022-07-06T15:03:26;19.80;99.90
64012;DHT22;50211;52.768;12.124;2022-07-06T15:05:51;19.60;99.90
64012;DHT22;50211;52.768;12.124;2022-07-06T15:08:17;19.60;99.90
64012;DHT22;50211;52.768;12.124;2022-07-06T15:10:43;19.70;99.90
64012;DHT22;50211;52.768;12.124;2022-07-06T15:13:10;19.70;99.90
64012;DHT22;50211;52.768;12.124;2022-07-06T15:15:36;19.80;99.90
64012;DHT22;50211;52.768;12.124;2022-07-06T15:18:02;19.80;99.90
64012;DHT22;50211;52.768;12.124;2022-07-06T15:20:27;19.90;99.90